SBMQSBMA

Guest
Details From SBMQ - MACAPA
To SBMA - Maraba
Flight Number -
Tags generated
Created
Modified
Stats Distance 367 nm / 680 km
Max Altitude 34,000 ft / 10,363 m
Waypoints 6
Social Downloads 0
Likes 0
Share

Download

Looking for another format? Having issues loading an existing format? Contact us
Advertisement - Login to hide

Notes

Basic altitude profile: - Ascent Rate: 500ft/min - Ascent Speed: 140kts - Cruise Altitude: 8000ft - Cruise Speed: 160kts - Descent Rate: 500ft/min - Descent Speed: 120kts Options: - Use NATs: yes - Use PACOTS: yes - Use low airways: no - Use high airways: no

Route

SBMQ 100S05000W 200S05000W 300S05000W 400S05000W SBMA

ID Type Via Altitude (ft/m) Position (lat/lon) Dist (leg/tot) Name
O SBMQ APT - 0 / 0 0.05064 / -51.07216 - / 0 nm MACAPA
100S05000W LATLON - 31,100 / 9,479 -1.00000 / -50.00000 90 / 90 nm
200S05000W LATLON - 34,000 / 10,363 -2.00000 / -50.00000 60 / 150 nm
300S05000W LATLON - 32,600 / 9,936 -3.00000 / -50.00000 60 / 210 nm
400S05000W LATLON - 20,700 / 6,309 -4.00000 / -50.00000 60 / 270 nm
O SBMA APT - 0 / 0 -5.36859 / -49.13802 97 / 367 nm Maraba

Altitude Profile

Advertisement - Login to hide

Weather


0- 5 10 15 20 25 30 35+ Temperature / °C

Clouds and Precipitation
Forecast for 2021-03-22 12:00 UTC. Updated 2 months ago

Ground ~20,000 ft ~40,000 ft Winds

SBMQ

Details ICAO SBMQ (MCP)
Name Macapa, Alberto A Intl
Region Brazil
Timezone America/Belem (UTC-3.0)
Stats Elevation 56 ft / 17 m (AMSL)
Location 0.050621° -51.072100°
Runways 1
Magnetic Variation 19.475° W

METAR

SBMQ 080700Z 29001KT 9999 FEW015 ///// Q1012

Decode

TAF

TAF SBMQ 080245Z 0806/0906 03005KT 9999 SCT012 TN24/0809Z TX30/0818Z TEMPO 0809/0815 4000 BR BKN010 BECMG 0815/0817 06010KT SCT020 BECMG 0817/0819 SCT020 FEW030TCU PROB30 0819/0821 TS SCT015 FEW025CB RMK PGZ

Decode

Departure Runways

ID Width Length Bearing (true/mag) Surface Threshold Overrun Markings Lighting
08 148 ft / 45 m 6,896 ft / 2,102 m 57.22° / 76.70° ASPHALT 0 ft / 0 m 0 ft / 0 m APP EDGE THRESHOLD REIL-OMNI
26 148 ft / 45 m 6,896 ft / 2,102 m 237.22° / 256.70° ASPHALT 0 ft / 0 m 0 ft / 0 m APP EDGE THRESHOLD REIL-OMNI

SBMA

Details ICAO SBMA (MAB)
Name Maraba Airport
Region Brazil
Timezone America/Belem (UTC-3.0)
Stats Elevation 356 ft / 109 m (AMSL)
Location -5.368660° -49.138100°
Runways 1
Magnetic Variation 20.730° W

METAR

SBMA 080700Z 00000KT CAVOK 24/// Q1013

Decode

TAF

TAF SBMA 080245Z 0806/0818 14005KT 9999 SCT015 TN21/0809Z TX29/0818Z PROB30 0806/0810 4000 RA BKN010 BECMG 0813/0815 36005KT BKN020 BECMG 0816/0818 02005KT SCT020 FEW030TCU RMK PGZ

Decode

Destination Runways

ID Width Length Bearing (true/mag) Surface Threshold Overrun Markings Lighting
07 148 ft / 45 m 6,568 ft / 2,002 m 50.35° / 71.08° ASPHALT 0 ft / 0 m 210 ft / 64 m APP EDGE THRESHOLD
25 148 ft / 45 m 6,568 ft / 2,002 m 230.35° / 251.08° ASPHALT 0 ft / 0 m 197 ft / 60 m APP EDGE THRESHOLD

Popular Alternatives